Latest Coastal Weather Observations for Green Cape

IDN60701

Issued at 9:11 am EST Monday 30 May 2016 (issued every 10 minutes, with the page automatically refreshed every 10 minutes)

About coastal observations | Map of coastal stations | Coastal observations for NSW | Marine services | Other Formats
Station Details ID: 069137 Name: GREEN CAPE AWS Lat: -37.26 Lon: 150.05 Height: 19.4 m
Data from the previous 72 hours. | See also: Recent months at Green Cape
Date/Time
EST
Temp

°C
Wind Pressure Rain
since 9am
mm
Weather Cloud Vis
km
Sea
Height
m
Swell
Dir
 
Speed
knots
Gust
knots
hPa Trend Height
m
Period
s
Dir
30/09:00am 12.5 WSW 19 23 1024.9 - 0.0 - - - - - - -
30/08:30am 12.2 WSW 21 25 1024.5 - 0.0 - - - - - - -
30/08:00am 11.9 WSW 20 25 1024.0 - 0.0 - - - - - - -
30/07:30am 11.7 WSW 22 27 1023.8 - 0.0 - - - - - - -
30/07:00am 11.6 WSW 22 26 1023.3 - 0.0 - - - - - - -
30/06:30am 11.8 WSW 24 30 1023.0 - 0.0 - - - - - - -
30/06:00am 11.8 WSW 21 25 1022.8 - 0.0 - - - - - - -
30/05:30am 11.7 WSW 21 26 1022.4 - 0.0 - - - - - - -
30/05:00am 11.9 WSW 24 29 1021.9 - 0.0 - - - - - - -
30/04:30am 11.9 WSW 25 30 1021.5 - 0.0 - - - - - - -
30/04:00am 12.1 WSW 27 32 1021.1 - 0.0 - - - - - - -
30/03:30am 11.9 WSW 24 31 1021.0 - 0.0 - - - - - - -
30/03:00am 12.0 W 22 26 1020.9 - 0.0 - - - - - - -
30/02:30am 12.0 WSW 23 27 1020.6 - 0.0 - - - - - - -
30/02:00am 12.0 WSW 22 29 1020.6 - 0.0 - - - - - - -
30/01:30am 12.1 W 19 23 1020.5 - 0.0 - - - - - - -
30/01:00am 12.2 WSW 22 29 1020.3 - 0.0 - - - - - - -
30/12:30am 12.2 WSW 25 31 1020.1 - 0.0 - - - - - - -
30/12:00am 12.1 WSW 24 28 1020.0 - 0.0 - - - - - - -
 
Date/Time
EST
Temp

°C
Wind Pressure Rain
since 9am
mm
Weather Cloud Vis
km
Sea
Height
m
Swell
Dir
 
Speed
knots
Gust
knots
hPa Trend Height
m
Period
s
Dir
29/11:30pm 12.1 WSW 19 24 1020.2 - 0.0 - - - - - - -
29/11:00pm 12.4 WSW 18 24 1020.1 - 0.0 - - - - - - -
29/10:30pm 12.4 WSW 18 22 1020.1 - 0.0 - - - - - - -
29/10:00pm 12.5 WSW 17 21 1019.9 - 0.0 - - - - - - -
29/09:30pm 12.7 WSW 16 20 1019.9 - 0.0 - - - - - - -
29/09:00pm 12.8 WSW 16 20 1019.7 - 0.0 - - - - - - -
29/08:30pm 13.1 WSW 18 24 1019.5 - 0.0 - - - - - - -
29/08:00pm 12.8 WSW 16 21 1019.1 - 0.0 - - - - - - -
29/07:30pm 12.7 WSW 16 20 1018.8 - 0.0 - - - - - - -
29/07:00pm 12.9 WSW 17 21 1018.4 - 0.0 - - - - - - -
29/06:30pm 12.8 WSW 17 20 1018.1 - 0.0 - - - - - - -
29/06:00pm 12.9 WSW 18 23 1017.9 - 0.0 - - - - - - -
29/05:30pm 13.1 WSW 17 21 1017.6 - 0.0 - - - - - - -
29/05:00pm 13.4 WSW 20 23 1017.2 - 0.0 - - - - - - -
29/04:30pm 13.7 WSW 17 22 1016.7 - 0.0 - - - - - - -
29/04:00pm 14.1 WSW 18 22 1016.3 - 0.0 - - - - - - -
29/03:30pm 14.2 SW 20 25 1016.3 - 0.0 - - - - - - -
29/03:00pm 14.3 SW 18 25 1015.8 - 0.0 - - - - - - -
29/02:30pm 15.1 WSW 16 19 1015.5 - 0.0 - - - - - - -
29/02:00pm 14.9 WSW 23 30 1015.0 - 0.0 - - - - - - -
29/01:30pm 14.8 WSW 23 28 1014.7 - 0.0 - - - - - - -
29/01:00pm 14.7 WSW 22 30 1014.6 - 0.0 - - - - - - -
29/12:30pm 14.5 WSW 23 29 1014.9 - 0.0 - - - - - - -
29/12:00pm 14.2 WSW 25 33 1014.9 - 0.0 - - - - - - -
29/11:30am 13.8 WSW 27 33 1014.9 - 0.0 - - - - - - -
29/11:00am 13.7 WSW 29 35 1014.8 - 0.0 - - - - - - -
29/10:59am 13.7 WSW 29 35 1014.8 - 0.0 - - - - - - -
29/10:36am 13.6 WSW 21 35 1014.9 - 0.0 - - - - - - -
29/10:30am 13.7 WSW 20 25 1015.0 - 0.0 - - - - - - -
29/10:00am 13.6 WSW 24 35 1014.8 - 0.0 - - - - - - -
29/09:56am 13.4 WSW 24 35 1014.6 - 0.0 - - - - - - -
29/09:30am 13.2 WSW 25 33 1014.3 - 0.0 - - - - - - -
29/09:00am 12.8 WSW 26 34 1013.7 - 4.2 - - - - - - -
29/08:30am 12.5 WSW 22 29 1013.7 - 4.2 - - - - - - -
29/08:00am 12.2 WSW 21 26 1013.8 - 4.2 - - - - - - -
29/07:30am 11.9 W 19 26 1013.6 - 4.2 - - - - - - -
29/07:00am 11.9 W 18 21 1013.4 - 4.2 - - - - - - -
29/06:30am 11.9 W 17 21 1013.3 - 4.2 - - - - - - -
29/06:00am 11.7 W 15 20 1013.0 - 4.2 - - - - - - -
29/05:30am 11.8 W 16 20 1012.6 - 4.2 - - - - - - -
29/05:00am 11.8 W 17 21 1012.3 - 4.2 - - - - - - -
29/04:30am 11.9 WSW 20 24 1012.3 - 4.2 - - - - - - -
29/04:00am 11.7 WSW 16 21 1012.3 - 4.2 - - - - - - -
29/03:30am 11.5 WSW 12 15 1012.0 - 4.2 - - - - - - -
29/03:00am 11.6 WSW 19 24 1011.7 - 4.2 - - - - - - -
29/02:30am 11.7 W 20 24 1011.4 - 4.2 - - - - - - -
29/02:05am 12.0 WSW 25 37 1011.3 - 4.2 - - - - - - -
29/02:00am 11.9 WSW 24 29 1011.3 - 4.2 - - - - - - -
29/01:32am 11.8 WSW 23 34 1011.1 - 4.2 - - - - - - -
29/01:30am 11.8 WSW 22 28 1011.2 - 4.2 - - - - - - -
29/01:00am 11.7 WSW 21 29 1011.1 - 4.2 - - - - - - -
29/12:30am 11.8 WSW 26 33 1010.7 - 4.2 - - - - - - -
29/12:00am 11.8 WSW 25 31 1010.6 - 4.2 - - - - - - -
 
Date/Time
EST
Temp

°C
Wind Pressure Rain
since 9am
mm
Weather Cloud Vis
km
Sea
Height
m
Swell
Dir
 
Speed
knots
Gust
knots
hPa Trend Height
m
Period
s
Dir
28/11:30pm 11.8 WSW 25 33 1010.8 - 4.2 - - - - - - -
28/11:00pm 11.9 WSW 25 31 1010.7 - 4.2 - - - - - - -
28/10:30pm 12.2 WSW 29 35 1010.4 - 4.2 - - - - - - -
28/10:00pm 12.1 WSW 24 32 1010.5 - 4.2 - - - - - - -
28/09:30pm 12.0 WSW 25 31 1010.6 - 4.2 - - - - - - -
28/09:00pm 11.9 WSW 23 28 1010.6 - 4.2 - - - - - - -
28/08:30pm 12.0 WSW 21 27 1010.4 - 4.2 - - - - - - -
28/08:00pm 11.8 WSW 20 26 1010.1 - 4.2 - - - - - - -
28/07:30pm 11.9 WSW 18 21 1009.9 - 4.2 - - - - - - -
28/07:00pm 12.1 WSW 22 27 1009.5 - 4.2 - - - - - - -
28/06:30pm 11.9 WSW 21 25 1009.1 - 4.2 - - - - - - -
28/06:00pm 11.9 WSW 25 31 1008.7 - 4.2 Recent precip. - - - - - -
28/05:30pm 11.6 WSW 26 31 1008.2 - 4.2 - - - - - - -
28/05:00pm 11.6 WSW 26 32 1007.5 - 4.0 - - - - - - -
28/04:30pm 11.5 WSW 27 33 1007.2 - 4.0 - - - - - - -
28/04:00pm 11.7 WSW 25 32 1006.9 - 3.8 - - - - - - -
28/03:30pm 11.4 WSW 26 32 1006.5 - 3.8 - - - - - - -
28/03:00pm 11.4 WSW 24 30 1006.1 - 3.8 Rain - - - - - -
28/02:30pm 11.0 WSW 27 34 1005.7 - 3.6 - - - - - - -
28/02:00pm 11.4 WSW 29 36 1005.3 - 3.6 - - - - - - -
28/01:30pm 11.3 WSW 27 34 1005.2 - 3.6 - - - - - - -
28/01:00pm 10.7 W 21 27 1005.2 - 3.6 - - - - - - -
28/12:30pm 9.8 W 18 21 1005.4 - 3.6 - - - - - - -
28/12:00pm 9.7 W 19 22 1005.7 - 2.8 Recent precip. - - - - - -
28/11:30am 10.0 W 21 25 1006.0 - 2.4 - - - - - - -
28/11:00am 10.3 W 22 28 1006.2 - 2.2 - - - - - - -
28/10:30am 10.0 W 20 23 1006.4 - 1.6 - - - - - - -
28/10:00am 9.5 WNW 17 23 1006.4 - 1.2 - - - - - - -
28/09:30am 9.5 W 17 21 1006.4 - 0.8 - - - - - - -
28/09:00am 9.6 W 19 22 1006.3 - 2.4 Rain - - - - - -
28/08:30am 9.5 W 19 22 1006.2 - 1.8 - - - - - - -
28/08:00am 9.7 W 20 25 1006.0 - 1.6 - - - - - - -
28/07:30am 9.9 W 20 24 1005.9 - 1.4 - - - - - - -
28/07:00am 9.9 W 19 24 1005.7 - 1.0 - - - - - - -
28/06:30am 10.2 W 19 25 1005.4 - 1.0 - - - - - - -
28/06:00am 10.1 W 23 29 1005.0 - 0.8 Recent precip. - - - - - -
28/05:30am 10.5 W 25 31 1004.9 - 0.8 - - - - - - -
28/05:00am 10.7 W 26 33 1004.6 - 0.4 - - - - - - -
28/04:30am 11.3 WSW 25 32 1004.5 - 0.2 - - - - - - -
28/04:03am 11.8 WSW 27 37 1004.3 - 0.0 - - - - - - -
28/04:00am 11.7 WSW 27 32 1004.3 - 0.0 - - - - - - -
28/03:30am 12.0 WSW 23 31 1004.5 - 0.0 - - - - - - -
28/03:00am 12.3 WSW 25 34 1004.8 - 0.0 - - - - - - -
28/02:30am 12.5 WSW 24 32 1004.8 - 0.0 - - - - - - -
28/02:00am 12.6 WSW 23 29 1004.9 - 0.0 - - - - - - -
28/01:31am 12.7 WSW 24 34 1004.7 - 0.0 - - - - - - -
28/01:30am 12.7 WSW 23 29 1004.8 - 0.0 - - - - - - -
28/01:00am 12.6 WSW 24 31 1004.7 - 0.0 - - - - - - -
28/12:30am 12.8 WSW 23 32 1004.7 - 0.0 - - - - - - -
28/12:00am 12.8 WSW 21 27 1004.8 - 0.0 - - - - - - -
 
Date/Time
EST
Temp

°C
Wind Pressure Rain
since 9am
mm
Weather Cloud Vis
km
Sea
Height
m
Swell
Dir
 
Speed
knots
Gust
knots
hPa Trend Height
m
Period
s
Dir
27/11:30pm 12.7 WSW 25 30 1004.7 - 0.0 - - - - - - -
27/11:00pm 12.6 WSW 25 31 1004.6 - 0.0 - - - - - - -
27/10:33pm 12.6 WSW 24 35 1004.2 - 0.0 - - - - - - -
27/10:30pm 12.6 WSW 23 29 1004.3 - 0.0 - - - - - - -
27/10:00pm 12.4 WSW 27 35 1003.8 - 0.0 - - - - - - -
27/09:36pm 12.6 WSW 27 37 1003.9 - 0.0 - - - - - - -
27/09:30pm 12.5 WSW 27 33 1004.0 - 0.0 - - - - - - -
27/09:00pm 12.3 WSW 26 39 1004.1 - 0.0 - - - - - - -
27/08:55pm 12.1 WSW 25 39 1004.1 - 0.0 - - - - - - -
27/08:30pm 11.9 WSW 27 36 1004.1 - 0.0 - - - - - - -
27/08:28pm 12.2 WSW 26 36 1004.2 - 0.0 - - - - - - -
27/08:00pm 11.7 WSW 27 35 1003.8 - 0.0 - - - - - - -
27/07:30pm 12.0 WSW 26 32 1003.7 - 0.0 - - - - - - -
27/07:00pm 11.9 WSW 30 41 1003.2 - 0.0 - - - - - - -
27/06:52pm 12.0 WSW 29 41 1003.2 - 0.0 - - - - - - -
27/06:30pm 11.7 WSW 30 38 1003.0 - 0.0 - - - - - - -
27/06:00pm 12.0 WSW 29 35 1002.6 - 0.0 - - - - - - -
27/05:30pm 11.8 WSW 30 38 1002.0 - 0.0 - - - - - - -
27/05:00pm 11.7 WSW 31 40 1001.4 - 0.0 - - - - - - -
27/04:40pm 11.5 WSW 31 41 1001.0 - 0.0 - - - - - - -
27/04:30pm 11.6 WSW 33 41 1000.9 - 0.0 - - - - - - -
27/04:00pm 11.6 WSW 34 42 1000.3 - 0.0 - - - - - - -
27/03:35pm 11.4 SW 34 45 999.5 - 0.0 - - - - - - -
27/03:30pm 11.5 SW 34 41 999.6 - 0.0 - - - - - - -
27/03:00pm 11.7 SW 36 43 999.1 - 0.0 - - - - - - -
27/02:33pm 11.9 WSW 37 48 998.4 - 0.0 - - - - - - -
27/02:30pm 11.9 WSW 37 44 998.4 - 0.0 - - - - - - -
27/02:00pm 12.0 WSW 34 49 997.8 - 0.0 - - - - - - -
27/01:33pm 12.4 WSW 35 46 997.4 - 0.0 - - - - - - -
27/01:30pm 12.6 WSW 35 43 997.5 - 0.0 - - - - - - -
27/01:05pm 12.6 WSW 36 48 996.9 - 0.0 - - - - - - -
27/01:00pm 12.7 WSW 36 46 997.1 - 0.0 - - - - - - -
27/12:30pm 12.6 WSW 41 52 996.8 - 0.0 - - - - - - -
27/12:28pm 12.5 WSW 40 52 996.8 - 0.0 - - - - - - -
27/12:26pm 12.6 WSW 40 52 996.5 - 0.0 - - - - - - -
27/12:06pm 12.9 WSW 34 47 997.0 - 0.0 - - - - - - -
27/12:00pm 12.8 WSW 34 42 997.0 - 0.0 - - - - - - -
27/11:30am 12.8 WSW 33 45 997.3 - 0.0 - - - - - - -
27/11:19am 12.8 WSW 34 49 997.4 - 0.0 - - - - - - -
27/11:17am 12.8 WSW 33 49 997.1 - 0.0 - - - - - - -
27/11:04am 12.8 WSW 28 40 997.6 - 0.0 - - - - - - -
27/11:00am 12.8 WSW 28 36 997.7 - 0.0 - - - - - - -
27/10:34am 12.7 WSW 29 39 998.1 - 0.0 - - - - - - -
27/10:30am 12.8 WSW 30 39 998.0 - 0.0 - - - - - - -
27/10:00am 12.6 WSW 28 39 998.0 - 0.0 - - - - - - -
27/09:30am 12.6 WSW 34 46 997.7 - 0.0 - - - - - - -

Other Formats:

Comma delimited format used in spreadsheet applications
http://www.bom.gov.au/fwo/IDN60701/IDN60701.94934.axf

JavaScript Object Notation format (JSON) in row-major order
http://www.bom.gov.au/fwo/IDN60701/IDN60701.94934.json